createdAt,value
2019-02-16T00:01:35.352Z,18.03
2019-02-16T00:04:02.890Z,22.57
2019-02-16T00:09:20.362Z,18.33
2019-02-16T00:11:48.064Z,18.37
2019-02-16T00:14:15.620Z,20.20
2019-02-16T00:16:43.664Z,18.67
2019-02-16T00:19:11.298Z,18.50
2019-02-16T00:21:39.217Z,19.87
2019-02-16T00:24:06.856Z,20.27
2019-02-16T00:26:34.497Z,18.50
2019-02-16T00:29:02.184Z,18.63
2019-02-16T00:31:30.366Z,21.20
2019-02-16T00:33:57.927Z,18.20
2019-02-16T00:36:26.539Z,22.80
2019-02-16T00:38:54.325Z,20.73
2019-02-16T00:41:22.119Z,17.27
2019-02-16T00:43:50.343Z,17.47
2019-02-16T00:46:18.257Z,21.93
2019-02-16T00:48:46.206Z,19.47
2019-02-16T00:51:14.135Z,18.13
2019-02-16T00:53:41.851Z,17.63
2019-02-16T00:56:09.535Z,19.73
2019-02-16T00:58:37.152Z,18.77
2019-02-16T01:01:05.065Z,20.73
2019-02-16T01:03:32.784Z,19.30
2019-02-16T01:06:00.386Z,20.93
2019-02-16T01:08:27.975Z,18.03
2019-02-16T01:10:55.401Z,21.37
2019-02-16T01:13:23.150Z,22.90
2019-02-16T01:15:50.683Z,25.53
2019-02-16T01:21:00.471Z,25.23
2019-02-16T01:23:27.938Z,24.17
2019-02-16T01:25:55.480Z,23.13
2019-02-16T01:28:23.037Z,22.33
2019-02-16T01:30:50.636Z,22.03
2019-02-16T01:33:18.517Z,25.80
2019-02-16T01:35:46.100Z,22.87
2019-02-16T01:38:13.701Z,22.90
2019-02-16T01:40:41.300Z,22.50
2019-02-16T01:43:08.928Z,23.47
2019-02-16T01:45:36.796Z,28.33
2019-02-16T01:48:04.331Z,26.90
2019-02-16T01:50:31.892Z,29.20
2019-02-16T01:52:59.928Z,28.50
2019-02-16T01:55:27.797Z,27.07
2019-02-16T01:57:56.412Z,22.83
2019-02-16T02:00:24.285Z,27.47
2019-02-16T02:02:51.908Z,25.70
2019-02-16T02:05:19.571Z,23.93
2019-02-16T02:07:47.183Z,23.13
2019-02-16T02:10:15.051Z,27.50
2019-02-16T02:12:42.842Z,29.87
2019-02-16T02:15:10.749Z,26.73
2019-02-16T02:17:38.380Z,25.83
2019-02-16T02:20:06.554Z,26.87
2019-02-16T02:22:34.167Z,22.83
2019-02-16T02:25:01.734Z,26.47
2019-02-16T02:27:29.642Z,23.23
2019-02-16T02:29:58.344Z,24.90
2019-02-16T02:32:25.981Z,31.47
2019-02-16T02:35:06.220Z,27.27
2019-02-16T02:37:34.130Z,24.93
2019-02-16T02:45:41.613Z,27.43
2019-02-16T02:51:06.639Z,21.87
2019-02-16T02:53:34.279Z,24.73
2019-02-16T02:56:01.878Z,22.80
2019-02-16T02:58:29.794Z,24.13
2019-02-16T03:00:57.361Z,22.03
2019-02-16T03:03:24.993Z,23.40
2019-02-16T03:05:52.633Z,25.53
2019-02-16T03:08:20.246Z,22.93
2019-02-16T03:10:48.197Z,21.13
2019-02-16T03:13:16.051Z,22.23
2019-02-16T03:15:43.700Z,23.10
2019-02-16T03:18:11.296Z,23.23
2019-02-16T03:20:38.902Z,22.37
2019-02-16T03:23:32.016Z,24.60
2019-02-16T03:26:10.834Z,23.50
2019-02-16T03:28:40.496Z,27.93
2019-02-16T03:31:26.304Z,20.80
2019-02-16T03:33:59.945Z,24.37
2019-02-16T03:36:48.481Z,25.60
2019-02-16T03:39:17.583Z,28.27
2019-02-16T03:41:45.218Z,25.30
2019-02-16T03:44:12.798Z,28.97
2019-02-16T03:49:27.287Z,25.47
2019-02-16T03:51:54.924Z,23.57
2019-02-16T03:54:22.847Z,26.53
2019-02-16T03:56:50.426Z,20.97
2019-02-16T03:59:18.302Z,23.63
2019-02-16T04:01:45.893Z,27.63
2019-02-16T04:07:13.528Z,25.67
2019-02-16T04:09:41.465Z,27.73
2019-02-16T04:12:09.048Z,30.90
2019-02-16T04:17:26.657Z,22.80
2019-02-16T04:19:54.568Z,23.80
2019-02-16T04:22:24.784Z,25.93
2019-02-16T04:24:51.579Z,26.83
2019-02-16T04:27:19.136Z,23.93
2019-02-16T04:29:46.708Z,26.13
2019-02-16T04:32:14.233Z,22.87
2019-02-16T04:34:41.790Z,23.93
2019-02-16T04:37:09.352Z,24.80
2019-02-16T04:39:37.915Z,26.57
2019-02-16T04:42:05.354Z,27.27
2019-02-16T04:44:32.912Z,29.97
2019-02-16T04:47:00.440Z,26.67
2019-02-16T04:49:27.998Z,29.60
2019-02-16T04:51:57.569Z,29.30
2019-02-16T04:54:25.158Z,29.60
2019-02-16T04:56:52.753Z,30.87
2019-02-16T04:59:20.287Z,30.77
2019-02-16T05:01:47.862Z,34.17
2019-02-16T05:04:17.690Z,35.77
2019-02-16T05:06:45.522Z,35.17
2019-02-16T05:09:12.972Z,28.83
2019-02-16T05:11:42.599Z,31.03
2019-02-16T05:14:10.141Z,33.07
2019-02-16T05:16:38.737Z,31.03
2019-02-16T05:19:06.534Z,31.63
2019-02-16T05:21:34.086Z,32.37
2019-02-16T05:24:01.638Z,33.37
2019-02-16T05:29:18.922Z,34.13
2019-02-16T05:31:46.694Z,30.50
2019-02-16T05:34:14.506Z,29.67
2019-02-16T05:36:42.718Z,30.83
2019-02-16T05:39:10.638Z,36.23
2019-02-16T05:41:38.534Z,33.23
2019-02-16T05:44:06.363Z,36.87
2019-02-16T05:46:34.231Z,34.93
2019-02-16T05:49:02.075Z,31.57
2019-02-16T05:51:29.880Z,30.07
2019-02-16T05:53:57.683Z,34.57
2019-02-16T05:56:25.440Z,38.47
2019-02-16T05:58:53.229Z,37.37
2019-02-16T06:01:21.020Z,35.53
2019-02-16T06:03:49.224Z,38.57
2019-02-16T06:06:17.490Z,33.17
2019-02-16T06:08:46.393Z,36.17
2019-02-16T06:11:14.536Z,47.57
2019-02-16T06:13:43.314Z,44.17
2019-02-16T06:16:12.562Z,47.10
2019-02-16T06:18:40.870Z,36.70
2019-02-16T06:21:09.324Z,38.43
2019-02-16T06:23:37.046Z,51.23
2019-02-16T06:26:04.943Z,45.00
2019-02-16T06:28:32.666Z,50.87
2019-02-16T06:31:00.480Z,48.70
2019-02-16T06:33:28.436Z,44.27
2019-02-16T06:36:07.186Z,41.00
2019-02-16T06:38:34.888Z,43.93
2019-02-16T06:41:02.716Z,47.43
2019-02-16T06:43:30.632Z,53.07
2019-02-16T06:46:00.900Z,56.43
2019-02-16T06:48:30.146Z,59.80
2019-02-16T06:50:57.910Z,55.63
2019-02-16T06:53:26.891Z,48.73
2019-02-16T06:56:12.692Z,40.93
2019-02-16T06:58:40.576Z,38.33
2019-02-16T07:01:08.401Z,36.23
2019-02-16T07:03:36.686Z,34.50
2019-02-16T07:06:09.240Z,36.67
2019-02-16T07:08:38.133Z,36.40
2019-02-16T07:11:09.722Z,33.20
2019-02-16T07:13:38.351Z,37.30
2019-02-16T07:16:23.917Z,35.93
2019-02-16T07:19:02.614Z,36.93
2019-02-16T07:21:30.800Z,35.40
2019-02-16T07:23:58.687Z,35.53
2019-02-16T07:26:26.973Z,33.33
2019-02-16T07:28:54.787Z,37.47
2019-02-16T07:31:22.692Z,32.03
2019-02-16T07:33:50.575Z,29.50
2019-02-16T07:36:22.023Z,41.10
2019-02-16T07:38:49.525Z,32.83
2019-02-16T07:41:17.859Z,29.50
2019-02-16T07:44:05.111Z,30.60
2019-02-16T07:46:43.419Z,29.23
2019-02-16T07:49:20.517Z,30.80
2019-02-16T07:52:03.767Z,28.20
2019-02-16T07:54:51.062Z,30.60
2019-02-16T07:57:41.355Z,27.77
2019-02-16T08:00:37.536Z,33.23
2019-02-16T08:03:24.792Z,26.47
2019-02-16T08:06:01.013Z,28.47
2019-02-16T08:08:50.647Z,28.03
2019-02-16T08:11:39.463Z,25.57
2019-02-16T08:14:25.327Z,28.10
2019-02-16T08:17:21.391Z,24.03
2019-02-16T08:20:02.360Z,27.77
2019-02-16T08:23:00.969Z,25.13
2019-02-16T08:25:47.701Z,26.10
2019-02-16T08:28:29.313Z,25.60
2019-02-16T08:31:13.688Z,26.23
2019-02-16T08:33:54.731Z,26.87
2019-02-16T08:36:44.764Z,30.43
2019-02-16T08:39:32.199Z,27.33
2019-02-16T08:42:18.749Z,25.17
2019-02-16T08:45:04.488Z,27.00
2019-02-16T08:47:50.032Z,27.83
2019-02-16T08:50:44.128Z,27.73
2019-02-16T08:53:31.681Z,31.83
2019-02-16T08:56:09.267Z,27.93
2019-02-16T08:58:56.547Z,25.20
2019-02-16T09:01:54.977Z,27.10
2019-02-16T09:04:41.231Z,25.47
2019-02-16T09:07:40.419Z,23.97
2019-02-16T09:10:42.663Z,24.17
2019-02-16T09:13:18.125Z,25.20
2019-02-16T09:16:00.753Z,23.90
2019-02-16T09:18:53.699Z,24.77
2019-02-16T09:21:39.336Z,25.37
2019-02-16T09:24:25.023Z,26.37
2019-02-16T09:27:25.068Z,26.20
2019-02-16T09:30:24.521Z,27.70
2019-02-16T09:33:10.687Z,24.03
2019-02-16T09:35:44.468Z,24.33
2019-02-16T09:38:46.787Z,23.80
2019-02-16T09:41:36.692Z,21.43
2019-02-16T09:44:23.388Z,23.50
2019-02-16T09:47:09.389Z,23.63
2019-02-16T09:50:11.819Z,24.20
2019-02-16T09:53:15.764Z,24.27
2019-02-16T09:56:01.586Z,24.50
2019-02-16T09:59:00.813Z,23.60
2019-02-16T10:01:35.748Z,22.93
2019-02-16T10:04:20.457Z,29.00
2019-02-16T10:07:10.701Z,23.57
2019-02-16T10:13:07.776Z,22.87
2019-02-16T10:16:06.353Z,27.87
2019-02-16T10:27:47.971Z,23.13
2019-02-16T10:30:35.953Z,23.00
2019-02-16T10:33:23.058Z,23.70
2019-02-16T10:36:16.236Z,23.87
2019-02-16T10:39:06.032Z,24.37
2019-02-16T10:41:51.620Z,24.23
2019-02-16T10:44:48.746Z,24.20
2019-02-16T10:47:21.979Z,23.20
2019-02-16T10:50:24.147Z,21.30
2019-02-16T10:52:57.958Z,25.03
2019-02-16T10:55:50.869Z,25.43
2019-02-16T10:58:53.218Z,26.43
2019-02-16T11:01:28.234Z,26.80
2019-02-16T11:04:11.163Z,27.47
2019-02-16T11:06:56.231Z,24.60
2019-02-16T11:09:43.494Z,22.03
2019-02-16T11:12:39.806Z,28.90
2019-02-16T11:15:40.286Z,22.87
2019-02-16T11:18:34.290Z,27.17
2019-02-16T11:21:24.519Z,23.73
2019-02-16T11:24:06.605Z,25.87
2019-02-16T11:26:41.820Z,22.77
2019-02-16T11:29:27.368Z,23.87
2019-02-16T11:32:07.897Z,24.17
2019-02-16T11:34:57.902Z,23.67
2019-02-16T11:40:28.307Z,21.67
2019-02-16T11:43:33.725Z,20.97
2019-02-16T11:46:26.724Z,21.93
2019-02-16T11:49:12.531Z,23.73
2019-02-16T11:51:57.244Z,23.73
2019-02-16T11:54:46.279Z,23.27
2019-02-16T11:57:40.539Z,26.23
2019-02-16T12:00:25.219Z,46.50
2019-02-16T12:03:13.601Z,22.67
2019-02-16T12:05:59.783Z,22.00
2019-02-16T12:08:45.441Z,24.20
2019-02-16T12:11:32.541Z,25.23
2019-02-16T12:14:19.063Z,21.27
2019-02-16T12:17:06.961Z,22.02
2019-02-16T12:20:02.899Z,21.65
2019-02-16T12:22:48.011Z,20.10
2019-02-16T12:25:33.786Z,21.80
2019-02-16T12:28:21.521Z,19.05
2019-02-16T12:31:11.658Z,22.10
2019-02-16T12:34:03.882Z,20.68
2019-02-16T12:36:49.593Z,20.23
2019-02-16T12:39:39.708Z,20.07
2019-02-16T12:45:11.513Z,26.17
2019-02-16T12:48:07.812Z,22.90
2019-02-16T12:50:54.903Z,21.73
2019-02-16T12:53:41.927Z,29.07
2019-02-16T12:56:45.205Z,25.27
2019-02-16T12:59:32.417Z,27.30
2019-02-16T13:02:29.331Z,22.02
2019-02-16T13:05:14.792Z,22.27
2019-02-16T13:08:13.795Z,25.77
2019-02-16T13:10:58.303Z,23.87
2019-02-16T13:13:54.381Z,22.73
2019-02-16T13:16:39.082Z,22.07
2019-02-16T13:19:24.798Z,25.50
2019-02-16T13:22:00.526Z,21.90
2019-02-16T13:25:01.732Z,24.50
2019-02-16T13:28:03.959Z,23.70
2019-02-16T13:30:50.949Z,23.87
2019-02-16T13:33:43.993Z,24.63
2019-02-16T13:36:31.039Z,27.55
2019-02-16T13:39:28.259Z,23.90
2019-02-16T13:45:18.615Z,25.00
2019-02-16T13:47:51.544Z,25.00
2019-02-16T13:50:31.695Z,26.07
2019-02-16T13:53:05.163Z,27.37
2019-02-16T13:56:10.195Z,28.17
2019-02-16T13:58:56.663Z,31.47
2019-02-16T14:01:55.885Z,26.35
2019-02-16T14:04:51.891Z,26.17
2019-02-16T14:07:42.141Z,27.27
2019-02-16T14:10:26.973Z,27.83
2019-02-16T14:13:14.061Z,23.70
2019-02-16T14:15:52.989Z,27.37
2019-02-16T14:18:20.585Z,28.30
2019-02-16T14:20:49.137Z,25.23
2019-02-16T14:23:16.881Z,26.20
2019-02-16T14:25:45.947Z,25.02
2019-02-16T14:28:13.557Z,25.50
2019-02-16T14:30:41.357Z,26.07
2019-02-16T14:33:08.999Z,26.80
2019-02-16T14:35:36.986Z,30.60
2019-02-16T14:38:30.176Z,23.83
2019-02-16T14:40:57.949Z,26.80
2019-02-16T14:43:25.523Z,26.60
2019-02-16T14:51:30.813Z,27.62
2019-02-16T14:53:59.446Z,26.95
2019-02-16T14:56:26.999Z,26.12
2019-02-16T14:58:54.557Z,28.57
2019-02-16T15:01:22.114Z,24.40
2019-02-16T15:03:49.671Z,25.00
2019-02-16T15:06:17.231Z,24.23
2019-02-16T15:08:44.832Z,30.60
2019-02-16T15:11:12.338Z,27.47
2019-02-16T15:13:39.868Z,24.77
2019-02-16T15:16:07.441Z,27.53
2019-02-16T15:18:35.235Z,26.30
2019-02-16T15:21:02.819Z,28.57
2019-02-16T15:23:30.354Z,29.43
2019-02-16T15:26:01.019Z,28.92
2019-02-16T15:28:27.549Z,26.95
2019-02-16T15:30:55.135Z,24.45
2019-02-16T15:33:23.837Z,27.80
2019-02-16T15:35:51.693Z,27.07
2019-02-16T15:38:19.225Z,27.52
2019-02-16T15:40:47.068Z,28.50
2019-02-16T15:43:14.606Z,29.80
2019-02-16T15:45:42.197Z,28.13
2019-02-16T15:48:09.744Z,27.67
2019-02-16T15:50:37.323Z,26.67
2019-02-16T15:53:04.773Z,27.97
2019-02-16T15:55:43.234Z,26.45
2019-02-16T15:58:10.788Z,28.23
2019-02-16T16:03:24.296Z,27.50
2019-02-16T16:48:06.488Z,30.43
2019-02-16T16:50:53.191Z,32.77
2019-02-16T16:53:40.597Z,30.47
2019-02-16T16:56:28.918Z,33.23
2019-02-16T16:59:16.085Z,33.77
2019-02-16T17:02:10.481Z,36.03
2019-02-16T17:05:12.587Z,36.50
2019-02-16T17:08:00.992Z,36.77
2019-02-16T17:10:46.563Z,46.80
2019-02-16T17:13:37.977Z,36.30
2019-02-16T17:16:27.798Z,37.43
2019-02-16T17:19:23.749Z,40.47
2019-02-16T17:22:20.683Z,44.70
2019-02-16T17:25:15.018Z,42.40
2019-02-16T17:28:15.027Z,47.40
2019-02-16T17:31:02.185Z,45.03
2019-02-16T17:33:54.749Z,44.33
2019-02-16T17:36:51.863Z,37.70
2019-02-16T17:39:25.686Z,49.80
2019-02-16T17:45:19.015Z,61.27
2019-02-16T17:48:09.182Z,65.33
2019-02-16T17:51:05.268Z,52.93
2019-02-16T17:53:45.320Z,57.23
2019-02-16T17:56:18.574Z,65.07
2019-02-16T17:59:08.700Z,55.10
2019-02-16T18:02:02.446Z,55.70
2019-02-16T18:04:48.190Z,49.53
2019-02-16T18:07:42.346Z,47.90
2019-02-16T18:10:29.490Z,51.73
2019-02-16T18:13:17.117Z,55.80
2019-02-16T18:16:10.262Z,52.00
2019-02-16T18:18:53.474Z,49.80
2019-02-16T18:21:58.654Z,58.40
2019-02-16T18:24:43.452Z,51.77
2019-02-16T18:27:33.826Z,58.70
2019-02-16T18:30:21.238Z,60.47
2019-02-16T18:33:11.892Z,77.23
2019-02-16T18:35:45.843Z,86.43
2019-02-16T18:38:36.480Z,85.87
2019-02-16T18:41:17.736Z,80.30
2019-02-16T18:44:00.906Z,73.63
2019-02-16T18:46:44.680Z,84.70
2019-02-16T18:49:40.692Z,84.57
2019-02-16T18:55:11.316Z,82.13
2019-02-16T19:00:51.244Z,79.67
2019-02-16T19:03:42.114Z,80.90
2019-02-16T19:06:38.076Z,84.37
2019-02-16T19:09:24.486Z,88.93
2019-02-16T19:12:09.278Z,81.60
2019-02-16T19:14:59.341Z,90.53
2019-02-16T19:17:37.577Z,83.90
2019-02-16T19:20:29.339Z,89.53
2019-02-16T19:23:16.473Z,90.50
2019-02-16T19:26:00.060Z,91.63
2019-02-16T19:28:37.021Z,107.97
2019-02-16T19:31:23.233Z,119.40
2019-02-16T19:34:22.440Z,116.37
2019-02-16T19:37:24.744Z,119.57
2019-02-16T19:40:10.188Z,125.50
2019-02-16T19:42:53.821Z,134.47
2019-02-16T19:45:41.219Z,137.03
2019-02-16T19:48:16.834Z,127.23
2019-02-16T19:51:04.329Z,142.57
2019-02-16T19:53:43.750Z,160.20
2019-02-16T19:56:25.981Z,161.00
2019-02-16T19:59:09.621Z,158.63
2019-02-16T20:02:12.930Z,173.97
2019-02-16T20:07:54.775Z,228.27
2019-02-16T20:10:44.809Z,238.47
2019-02-16T20:13:50.284Z,230.63
2019-02-16T20:16:23.884Z,220.90
2019-02-16T20:19:03.838Z,219.17
2019-02-16T20:21:45.432Z,221.10
2019-02-16T20:24:31.144Z,223.53
2019-02-16T20:27:21.167Z,225.40
2019-02-16T20:30:11.534Z,217.23
2019-02-16T20:32:58.830Z,201.23
2019-02-16T20:35:42.374Z,190.83
2019-02-16T20:38:32.897Z,181.10
2019-02-16T20:41:20.101Z,185.13
2019-02-16T20:44:22.393Z,190.13
2019-02-16T20:47:05.329Z,195.83
2019-02-16T20:50:04.285Z,188.50
2019-02-16T20:53:00.699Z,160.13
2019-02-16T20:55:46.765Z,162.23
2019-02-16T20:58:25.287Z,147.80
2019-02-16T21:01:18.650Z,153.53
2019-02-16T21:04:04.596Z,171.70
2019-02-16T21:07:07.276Z,183.53
2019-02-16T21:09:57.379Z,190.00
2019-02-16T21:12:36.143Z,207.13
2019-02-16T21:15:32.175Z,192.67
2019-02-16T21:18:19.435Z,207.17
2019-02-16T21:21:21.251Z,224.63
2019-02-16T21:24:09.658Z,209.70
2019-02-16T21:26:55.159Z,206.20
2019-02-16T21:29:48.190Z,203.43
2019-02-16T21:32:22.063Z,202.00
2019-02-16T21:35:18.737Z,198.70
2019-02-16T21:38:21.925Z,194.60
2019-02-16T21:41:00.769Z,186.70
2019-02-16T21:43:46.571Z,181.37
2019-02-16T21:46:49.183Z,196.10
2019-02-16T21:49:34.455Z,221.17
2019-02-16T21:52:20.109Z,203.60
2019-02-16T21:55:05.554Z,225.53
2019-02-16T21:57:55.477Z,228.00
2019-02-16T22:00:42.635Z,214.50
2019-02-16T22:03:44.423Z,214.27
2019-02-16T22:06:40.646Z,214.20
2019-02-16T22:09:30.922Z,205.73
2019-02-16T22:12:31.184Z,205.63
2019-02-16T22:14:58.845Z,200.80
2019-02-16T22:17:26.460Z,206.50
2019-02-16T22:19:54.087Z,207.07
2019-02-16T22:22:21.958Z,228.37
2019-02-16T22:24:49.599Z,238.40
2019-02-16T22:27:17.235Z,263.17
2019-02-16T22:29:45.897Z,265.30
2019-02-16T22:32:13.392Z,294.67
2019-02-16T22:34:41.051Z,306.73
2019-02-16T22:37:08.741Z,324.37
2019-02-16T22:39:38.565Z,343.03
2019-02-16T22:42:06.324Z,324.23
2019-02-16T22:44:33.907Z,321.70
2019-02-16T22:47:01.547Z,300.07
2019-02-16T22:52:20.465Z,304.23
2019-02-16T22:54:48.172Z,298.97
2019-02-16T22:57:15.889Z,305.37
2019-02-16T22:59:43.760Z,290.80
2019-02-16T23:02:12.047Z,312.20
2019-02-16T23:04:39.725Z,334.07
2019-02-16T23:07:07.429Z,328.63
2019-02-16T23:09:35.175Z,340.80
2019-02-16T23:12:03.370Z,370.53
2019-02-16T23:14:31.091Z,356.23
2019-02-16T23:16:58.848Z,320.07
2019-02-16T23:19:26.865Z,307.57
2019-02-16T23:21:54.585Z,288.23
2019-02-16T23:24:22.264Z,298.27
2019-02-16T23:26:50.377Z,316.53
2019-02-16T23:29:18.358Z,292.83
2019-02-16T23:31:46.083Z,290.73
2019-02-16T23:34:13.821Z,289.13
2019-02-16T23:36:41.526Z,286.40
2019-02-16T23:39:10.628Z,257.93
2019-02-16T23:41:38.349Z,271.77
2019-02-16T23:44:06.029Z,258.37
2019-02-16T23:46:33.818Z,256.20
2019-02-16T23:49:01.506Z,268.40
2019-02-16T23:51:29.345Z,277.43
2019-02-16T23:53:56.931Z,267.47
2019-02-16T23:56:24.822Z,275.10
2019-02-16T23:58:52.432Z,271.10
